Time;durP1;ratioP1;P1;durP2;ratioP2;P2;SDS_P1;SDS_P2;PMS_P1;PMS_P2;Temp;Humidity;BMP_temperature;BMP_pressure;BME280_temperature;BME280_humidity;BME280_pressure;Samples;Min_cycle;Max_cycle;Signal;HPM_P1;HPM_P2
2021/01/21 00:00:10;;;;;;;76.57;35.00;;;;;;;0.45;88.39;99413.97;1725462;82;25608;-56
2021/01/21 00:02:38;;;;;;;70.42;33.05;;;;;;;0.43;88.44;99411.57;1725493;82;25592;-58
2021/01/21 00:05:09;;;;;;;68.12;33.23;;;;;;;0.40;88.49;99412.09;1725413;83;25780;-54
2021/01/21 00:07:35;;;;;;;70.70;34.75;;;;;;;0.39;88.46;99416.34;1725364;83;25670;-57
2021/01/21 00:10:04;;;;;;;67.60;31.17;;;;;;;0.36;88.42;99411.03;1740119;82;25577;-55
2021/01/21 00:12:30;;;;;;;73.78;33.30;;;;;;;0.34;88.45;99410.47;1747242;82;25682;-56
2021/01/21 00:14:57;;;;;;;72.80;33.10;;;;;;;0.33;88.73;99415.54;1747246;82;25623;-49
2021/01/21 00:17:24;;;;;;;73.75;33.50;;;;;;;0.32;88.59;99409.94;1747160;82;26249;-57
2021/01/21 00:19:51;;;;;;;73.33;32.78;;;;;;;0.32;88.60;99409.94;1747223;81;25650;-56
2021/01/21 00:22:17;;;;;;;70.20;33.08;;;;;;;0.32;88.63;99412.09;1747323;81;25689;-58
2021/01/21 00:24:44;;;;;;;69.22;33.10;;;;;;;0.32;88.68;99405.44;1747174;82;25631;-55
2021/01/21 00:27:11;;;;;;;75.32;33.48;;;;;;;0.32;88.54;99398.78;1747215;82;25587;-58
2021/01/21 00:29:38;;;;;;;68.87;31.15;;;;;;;0.32;88.60;99401.45;1747289;82;26749;-58
2021/01/21 00:32:05;;;;;;;64.07;29.90;;;;;;;0.33;88.62;99399.58;1747057;81;25651;-55
2021/01/21 00:34:33;;;;;;;64.60;29.52;;;;;;;0.34;88.58;99405.14;1747148;82;25659;-57
2021/01/21 00:37:00;;;;;;;73.20;32.95;;;;;;;0.33;88.51;99399.58;1747185;81;25709;-57
2021/01/21 00:39:27;;;;;;;66.00;32.03;;;;;;;0.34;88.52;99405.14;1747191;82;25731;-57
2021/01/21 00:41:54;;;;;;;66.82;30.82;;;;;;;0.34;88.59;99403.31;1747244;82;26178;-58
2021/01/21 00:44:21;;;;;;;62.20;29.87;;;;;;;0.35;88.53;99409.42;1747159;82;25672;-57
2021/01/21 00:46:48;;;;;;;64.20;30.62;;;;;;;0.39;88.69;99415.02;1747184;81;25900;-57
2021/01/21 00:49:14;;;;;;;53.90;27.45;;;;;;;0.41;88.72;99408.89;1747152;81;25652;-56
2021/01/21 00:51:41;;;;;;;64.60;28.80;;;;;;;0.41;88.67;99405.72;1747233;82;25749;-57
2021/01/21 00:54:09;;;;;;;64.07;31.80;;;;;;;0.43;88.61;99401.47;1747159;81;26254;-58
2021/01/21 00:56:35;;;;;;;63.75;29.82;;;;;;;0.44;88.54;99407.03;1747071;81;25668;-57
2021/01/21 00:59:02;;;;;;;59.38;30.40;;;;;;;0.45;88.56;99405.45;1747131;82;26244;-56
2021/01/21 01:01:29;;;;;;;60.38;29.18;;;;;;;0.46;88.51;99411.05;1747121;81;25754;-58
2021/01/21 01:03:56;;;;;;;64.15;30.25;;;;;;;0.48;88.58;99412.13;1730228;82;25689;-51
2021/01/21 01:06:22;;;;;;;62.58;29.15;;;;;;;0.48;88.53;99405.47;1747190;82;26169;-54
2021/01/21 01:08:49;;;;;;;64.00;29.90;;;;;;;0.48;88.42;99402.81;1746604;82;25680;-56
2021/01/21 01:11:16;;;;;;;57.45;28.00;;;;;;;0.49;88.46;99404.39;1723780;83;25609;-57
2021/01/21 01:13:43;;;;;;;56.63;29.52;;;;;;;0.50;88.39;99400.67;1737845;82;25596;-52
2021/01/21 01:16:10;;;;;;;59.93;29.98;;;;;;;0.52;88.47;99406.52;1737979;82;25646;-56
2021/01/21 01:18:37;;;;;;;61.48;29.37;;;;;;;0.55;88.49;99402.02;1737958;82;26265;-50
2021/01/21 01:21:04;;;;;;;62.75;28.98;;;;;;;0.57;88.40;99408.41;1737944;82;25733;-56
2021/01/21 01:23:31;;;;;;;64.85;30.70;;;;;;;0.59;88.51;99401.73;1737961;82;25727;-56
2021/01/21 01:25:58;;;;;;;61.08;29.27;;;;;;;0.62;88.49;99403.09;1737921;82;25646;-56
2021/01/21 01:28:25;;;;;;;61.68;29.27;;;;;;;0.64;88.46;99404.41;1737962;82;25778;-56
2021/01/21 01:30:53;;;;;;;61.65;29.37;;;;;;;0.65;88.43;99407.89;1738059;82;25920;-53
2021/01/21 01:33:20;;;;;;;60.40;27.75;;;;;;;0.67;88.43;99393.78;1737871;81;25630;-56
2021/01/21 01:35:46;;;;;;;58.63;29.63;;;;;;;0.68;88.41;99388.70;1737648;82;25651;-57
2021/01/21 01:38:13;;;;;;;60.88;29.10;;;;;;;0.69;88.29;99406.28;1737916;81;25684;-57
2021/01/21 01:40:40;;;;;;;61.95;30.25;;;;;;;0.70;88.29;99391.92;1737928;82;25627;-57
2021/01/21 01:43:07;;;;;;;59.05;28.85;;;;;;;0.71;88.16;99390.30;1738381;81;25713;-56
2021/01/21 01:45:34;;;;;;;63.87;29.82;;;;;;;0.71;88.10;99397.50;1737679;82;25244;-56
2021/01/21 01:48:00;;;;;;;62.73;29.00;;;;;;;0.71;88.04;99390.84;1738229;82;25525;-48
2021/01/21 01:50:27;;;;;;;62.95;28.98;;;;;;;0.72;87.99;99393.78;1738459;82;25406;-56
2021/01/21 01:52:55;;;;;;;63.42;29.92;;;;;;;0.71;87.84;99397.50;1738657;81;25599;-57
2021/01/21 01:55:22;;;;;;;60.10;28.42;;;;;;;0.69;87.81;99403.62;1738594;81;26148;-55
2021/01/21 01:57:52;;;;;;;60.23;29.10;;;;;;;0.66;87.71;99402.81;1738423;81;25380;-55
2021/01/21 02:00:20;;;;;;;65.15;30.23;;;;;;;0.63;87.63;99392.69;1738696;82;25408;-54
2021/01/21 02:02:51;;;;;;;62.25;29.10;;;;;;;0.60;87.61;99397.23;1738617;81;25658;-54
2021/01/21 02:05:19;;;;;;;58.87;28.35;;;;;;;0.55;87.63;99405.47;1738664;82;25585;-57
2021/01/21 02:07:47;;;;;;;64.92;28.90;;;;;;;0.52;87.58;99405.98;1738590;81;25919;-50
2021/01/21 02:10:17;;;;;;;58.90;27.87;;;;;;;0.49;87.53;99396.41;1738528;82;25765;-55
2021/01/21 02:13:13;;;;;;;61.33;27.85;;;;;;;0.47;87.56;99401.20;1738612;82;25579;-46
2021/01/21 02:16:08;;;;;;;58.52;28.77;;;;;;;0.45;87.58;99394.02;1738534;82;25678;-56
2021/01/21 02:18:44;;;;;;;67.15;29.95;;;;;;;0.42;87.55;99391.87;1738611;82;25630;-56
2021/01/21 02:21:56;;;;;;;62.60;28.60;;;;;;;0.39;87.57;99393.19;1738718;81;26662;-55
2021/01/21 02:25:03;;;;;;;59.40;28.10;;;;;;;0.36;87.52;99388.41;1738399;81;25684;-56
2021/01/21 02:27:47;;;;;;;62.30;28.38;;;;;;;0.31;87.50;99391.06;1738516;81;25356;-46
2021/01/21 02:30:22;;;;;;;64.82;29.27;;;;;;;0.26;87.52;99387.86;1738539;82;25569;-55
2021/01/21 02:33:17;;;;;;;56.48;28.77;;;;;;;0.31;87.57;99395.05;1848583;76;34360;-58
2021/01/21 02:35:47;;;;;;;65.00;30.60;;;;;;;0.22;87.59;99397.41;1817206;78;25424;-44
2021/01/21 02:38:17;;;;;;;59.08;27.37;;;;;;;0.17;87.61;99392.06;1818679;78;26433;-56
2021/01/21 02:40:46;;;;;;;61.23;29.20;;;;;;;0.14;87.62;99377.98;1818744;78;25558;-47
2021/01/21 02:43:13;;;;;;;61.70;27.98;;;;;;;0.11;87.61;99404.56;1787098;78;25563;-55
2021/01/21 02:45:39;;;;;;;60.10;27.77;;;;;;;0.08;87.62;99382.47;1818735;78;25562;-54
2021/01/21 02:48:08;;;;;;;59.80;27.87;;;;;;;0.06;87.62;99385.14;1818598;78;25332;-51
2021/01/21 02:50:35;;;;;;;63.78;28.40;;;;;;;0.04;87.55;99388.59;1818693;78;25888;-56
2021/01/21 02:53:02;;;;;;;64.72;29.12;;;;;;;0.01;87.49;99387.25;1818537;78;25396;-56
2021/01/21 02:56:03;;;;;;;64.95;31.27;;;;;;;-0.02;87.41;99388.58;1787103;78;25610;-56
2021/01/21 02:58:43;;;;;;;61.50;29.27;;;;;;;-0.05;87.45;99388.28;1818651;78;25430;-51
2021/01/21 03:01:10;;;;;;;63.73;27.40;;;;;;;-0.07;87.46;99385.09;1818622;78;25667;-51
2021/01/21 03:03:39;;;;;;;54.13;26.80;;;;;;;-0.09;87.46;99388.00;1818613;78;25757;-57
2021/01/21 03:06:06;;;;;;;61.50;28.07;;;;;;;-0.11;87.46;99391.45;1818854;78;25490;-54
2021/01/21 03:08:33;;;;;;;58.35;26.60;;;;;;;-0.12;87.45;99391.20;1818561;78;25814;-58
2021/01/21 03:11:14;;;;;;;56.23;28.42;;;;;;;-0.13;87.44;99392.79;1818467;78;25553;-43
2021/01/21 03:13:42;;;;;;;56.20;26.10;;;;;;;-0.13;87.43;99394.13;1818619;78;25479;-42
2021/01/21 03:16:09;;;;;;;54.38;25.92;;;;;;;-0.15;87.45;99388.23;1818570;78;25754;-55
2021/01/21 03:18:36;;;;;;;53.80;25.95;;;;;;;-0.15;87.42;99386.40;1818685;78;25590;-52
2021/01/21 03:21:04;;;;;;;53.87;26.77;;;;;;;-0.16;87.42;99399.41;1818477;78;25559;-58
2021/01/21 03:23:30;;;;;;;56.90;26.70;;;;;;;-0.18;87.33;99393.56;1818599;78;25396;-51
2021/01/21 03:25:57;;;;;;;59.30;25.88;;;;;;;-0.21;87.25;99386.09;1818660;78;25629;-49
2021/01/21 03:28:24;;;;;;;51.13;25.20;;;;;;;-0.22;87.27;99382.65;1818688;78;25676;-43
2021/01/21 03:30:50;;;;;;;55.00;26.73;;;;;;;-0.23;87.25;99385.02;1818609;78;25630;-55
2021/01/21 03:33:17;;;;;;;50.52;25.48;;;;;;;-0.24;87.17;99383.95;1818712;78;25562;-57
2021/01/21 03:35:44;;;;;;;50.92;23.12;;;;;;;-0.28;87.14;99385.00;1818538;78;25544;-57
2021/01/21 03:38:11;;;;;;;55.95;25.85;;;;;;;-0.32;87.17;99375.14;1818589;78;25306;-55
2021/01/21 03:40:37;;;;;;;56.98;27.85;;;;;;;-0.35;87.20;99380.46;1818677;78;27068;-54
2021/01/21 03:43:04;;;;;;;53.80;24.23;;;;;;;-0.38;87.34;99388.41;1818162;78;25542;-56
2021/01/21 03:45:31;;;;;;;51.58;24.02;;;;;;;-0.40;87.32;99381.23;1818077;78;25680;-54
2021/01/21 03:47:57;;;;;;;56.77;27.40;;;;;;;-0.40;87.29;99377.78;1818049;78;25495;-56
2021/01/21 03:50:24;;;;;;;54.67;23.90;;;;;;;-0.41;87.37;99374.84;1817944;78;25499;-56
2021/01/21 03:52:51;;;;;;;53.63;25.15;;;;;;;-0.42;87.38;99378.03;1817800;78;27229;-49
2021/01/21 03:55:18;;;;;;;54.80;24.60;;;;;;;-0.43;87.42;99372.44;1817844;78;25575;-56
2021/01/21 03:57:44;;;;;;;50.52;25.35;;;;;;;-0.43;87.38;99375.64;1817984;78;25385;-56
2021/01/21 04:00:12;;;;;;;56.15;25.27;;;;;;;-0.44;87.40;99375.38;1817882;78;25379;-56
2021/01/21 04:02:39;;;;;;;47.95;23.52;;;;;;;-0.43;87.47;99373.77;1818040;78;25665;-56
2021/01/21 04:05:07;;;;;;;52.20;23.70;;;;;;;-0.44;87.42;99379.37;1818047;78;26196;-57
2021/01/21 04:07:34;;;;;;;46.73;23.90;;;;;;;-0.44;87.32;99384.69;1817853;78;25546;-57
2021/01/21 04:10:00;;;;;;;48.87;24.67;;;;;;;-0.46;87.29;99385.45;1817925;78;25309;-46
2021/01/21 04:12:28;;;;;;;54.93;23.60;;;;;;;-0.47;87.36;99381.20;1818037;78;25550;-56
2021/01/21 04:14:54;;;;;;;49.18;25.23;;;;;;;-0.49;87.35;99384.66;1817914;78;25694;-57
2021/01/21 04:17:21;;;;;;;47.73;23.00;;;;;;;-0.49;87.34;99382.00;1817731;78;26298;-57
2021/01/21 04:19:48;;;;;;;51.30;24.40;;;;;;;-0.49;87.34;99381.46;1817943;78;25577;-55
2021/01/21 04:22:15;;;;;;;50.35;22.60;;;;;;;-0.47;87.34;99386.52;1818052;78;25489;-56
2021/01/21 04:24:42;;;;;;;48.60;24.12;;;;;;;-0.48;87.37;99379.06;1817981;78;25500;-56
2021/01/21 04:27:08;;;;;;;49.88;23.18;;;;;;;-0.51;87.32;99374.28;1818010;78;25484;-56
2021/01/21 04:29:35;;;;;;;47.53;22.52;;;;;;;-0.50;87.42;99379.84;1818002;78;26339;-56
2021/01/21 04:32:02;;;;;;;48.87;23.10;;;;;;;-0.52;87.37;99374.00;1819897;78;25694;-43
2021/01/21 04:34:28;;;;;;;46.42;22.40;;;;;;;-0.53;87.33;99375.58;1824255;78;25550;-53
2021/01/21 04:36:55;;;;;;;44.00;22.17;;;;;;;-0.53;87.36;99370.27;1824043;78;26206;-48
2021/01/21 04:39:22;;;;;;;49.48;23.32;;;;;;;-0.55;87.36;99367.87;1824274;78;25535;-56
2021/01/21 04:41:49;;;;;;;60.48;24.15;;;;;;;-0.56;87.36;99376.91;1824342;78;26195;-56
2021/01/21 04:44:15;;;;;;;49.08;23.67;;;;;;;-0.58;87.39;99377.67;1824234;78;25617;-56
2021/01/21 04:46:42;;;;;;;48.85;23.47;;;;;;;-0.59;87.43;99372.11;1824338;78;25554;-56
2021/01/21 04:49:10;;;;;;;46.00;21.93;;;;;;;-0.60;87.40;99371.83;1824321;78;25529;-56
2021/01/21 04:51:39;;;;;;;50.70;24.32;;;;;;;-0.59;87.43;99374.23;1824351;78;25565;-57
2021/01/21 04:54:07;;;;;;;51.95;23.57;;;;;;;-0.58;87.49;99373.69;1824417;78;26221;-56
2021/01/21 04:56:40;;;;;;;50.17;23.45;;;;;;;-0.56;87.53;99370.27;1823994;78;25445;-55
2021/01/21 04:59:10;;;;;;;44.90;23.02;;;;;;;-0.53;87.55;99372.92;1824291;78;25519;-55
2021/01/21 05:01:39;;;;;;;46.75;22.65;;;;;;;-0.51;87.60;99372.14;1824281;78;25346;-56
2021/01/21 05:04:06;;;;;;;47.13;22.27;;;;;;;-0.51;87.57;99366.31;1824563;78;25495;-50
2021/01/21 05:06:33;;;;;;;45.43;22.37;;;;;;;-0.49;87.58;99372.70;1823806;78;25761;-54
2021/01/21 05:09:03;;;;;;;45.52;21.77;;;;;;;-0.49;87.50;99366.06;1824221;78;25458;-55
2021/01/21 05:11:29;;;;;;;47.10;22.05;;;;;;;-0.47;87.51;99370.58;1824071;78;25504;-55
2021/01/21 05:13:57;;;;;;;38.60;20.62;;;;;;;-0.47;87.61;99367.92;1824213;78;25442;-57
2021/01/21 05:16:24;;;;;;;43.50;22.30;;;;;;;-0.45;87.60;99361.27;1824334;78;25341;-56
2021/01/21 05:18:53;;;;;;;45.35;23.18;;;;;;;-0.44;87.59;99369.53;1824274;78;26656;-56
2021/01/21 05:21:22;;;;;;;48.70;22.67;;;;;;;-0.42;87.58;99370.61;1824325;78;25629;-50
2021/01/21 05:23:52;;;;;;;45.40;21.80;;;;;;;-0.40;87.56;99368.48;1824251;78;25618;-56
2021/01/21 05:26:20;;;;;;;45.17;21.23;;;;;;;-0.36;87.58;99372.75;1824272;78;25546;-46
2021/01/21 05:28:48;;;;;;;44.05;21.15;;;;;;;-0.34;87.61;99375.94;1824279;78;25504;-49
2021/01/21 05:31:16;;;;;;;44.88;22.32;;;;;;;-0.30;87.62;99369.86;1824239;78;25904;-57
2021/01/21 05:33:44;;;;;;;48.42;22.42;;;;;;;-0.26;87.66;99369.59;1824009;78;25329;-50
2021/01/21 05:36:12;;;;;;;41.23;19.65;;;;;;;-0.22;87.62;99368.57;1824298;78;25467;-56
2021/01/21 05:38:56;;;;;;;43.05;21.93;;;;;;;-0.19;87.52;99368.03;1824249;78;25340;-57
2021/01/21 05:41:35;;;;;;;44.07;21.37;;;;;;;-0.10;87.40;99374.45;1848611;76;33705;-57
2021/01/21 05:44:08;;;;;;;43.75;21.25;;;;;;;-0.12;87.42;99373.92;1818577;78;25555;-58
2021/01/21 05:46:35;;;;;;;44.58;21.87;;;;;;;-0.09;87.39;99387.21;1818683;78;25787;-51
2021/01/21 05:49:03;;;;;;;41.25;20.48;;;;;;;-0.09;87.32;99384.02;1818654;78;25559;-54
2021/01/21 05:51:30;;;;;;;44.08;21.82;;;;;;;-0.08;87.29;99385.63;1818594;78;26080;-52
2021/01/21 05:53:57;;;;;;;46.40;23.05;;;;;;;-0.07;87.31;99385.09;1818635;78;25678;-55
2021/01/21 05:56:25;;;;;;;43.60;21.17;;;;;;;-0.06;87.28;99385.37;1818685;78;25421;-42
2021/01/21 05:58:54;;;;;;;41.92;20.65;;;;;;;-0.06;87.22;99395.46;1818721;78;26141;-56
2021/01/21 06:01:23;;;;;;;41.15;21.82;;;;;;;-0.06;87.11;99395.46;1818493;78;25320;-51
2021/01/21 06:03:51;;;;;;;43.13;21.50;;;;;;;-0.05;87.07;99394.92;1818864;78;25570;-56
2021/01/21 06:06:17;;;;;;;43.90;22.48;;;;;;;-0.06;87.00;99395.46;1787060;78;25633;-55
2021/01/21 06:08:45;;;;;;;42.62;20.90;;;;;;;-0.06;86.94;99399.45;1818660;78;25287;-47
2021/01/21 06:11:11;;;;;;;40.80;22.17;;;;;;;-0.06;86.86;99409.30;1818671;78;26735;-51
2021/01/21 06:13:40;;;;;;;52.58;24.80;;;;;;;-0.07;86.87;99401.86;1818499;78;25507;-51
2021/01/21 06:16:09;;;;;;;44.03;21.23;;;;;;;-0.08;86.83;99409.55;1818850;78;25508;-49
2021/01/21 06:18:36;;;;;;;47.10;23.87;;;;;;;-0.09;86.81;99405.82;1818489;78;25507;-54
2021/01/21 06:21:05;;;;;;;42.85;22.87;;;;;;;-0.12;86.78;99408.48;1818625;78;25369;-52
2021/01/21 06:23:32;;;;;;;47.70;23.95;;;;;;;-0.12;86.76;99404.50;1818813;78;33434;-56
2021/01/21 06:26:00;;;;;;;47.15;22.22;;;;;;;-0.15;86.72;99406.34;1818487;78;25581;-54
2021/01/21 06:28:28;;;;;;;46.42;24.05;;;;;;;-0.20;86.75;99401.80;1818709;78;25559;-56
2021/01/21 06:30:59;;;;;;;47.73;22.52;;;;;;;-0.14;86.74;99409.78;1818524;78;25432;-55
2021/01/21 06:33:29;;;;;;;49.85;25.15;;;;;;;-0.13;86.73;99408.73;1818664;78;25648;-53
2021/01/21 06:36:07;;;;;;;48.92;24.32;;;;;;;-0.13;86.78;99413.52;1818194;78;26204;-56
2021/01/21 06:38:43;;;;;;;47.33;23.47;;;;;;;-0.12;86.65;99416.97;1817365;78;25689;-50
2021/01/21 06:41:17;;;;;;;43.85;23.27;;;;;;;-0.12;86.61;99415.13;1817167;78;25604;-56
2021/01/21 06:43:45;;;;;;;46.70;22.90;;;;;;;-0.15;86.50;99415.64;1817159;78;25484;-55
2021/01/21 06:46:15;;;;;;;45.20;21.47;;;;;;;-0.13;86.53;99414.05;1818127;78;25665;-47
2021/01/21 06:48:48;;;;;;;45.35;23.20;;;;;;;-0.14;86.53;99419.09;1817670;78;25704;-55
2021/01/21 06:51:16;;;;;;;42.08;21.12;;;;;;;-0.14;86.48;99417.77;1817927;78;25610;-51
2021/01/21 06:53:46;;;;;;;44.80;22.62;;;;;;;-0.14;86.56;99413.23;1818074;78;25589;-55
2021/01/21 06:56:13;;;;;;;42.95;21.37;;;;;;;-0.13;86.63;99414.84;1817590;78;25596;-54
2021/01/21 06:58:50;;;;;;;41.18;22.80;;;;;;;-0.11;86.59;99422.03;1817990;78;25420;-54
2021/01/21 07:01:42;;;;;;;43.70;22.75;;;;;;;-0.07;86.69;99423.64;1818013;78;25804;-55
2021/01/21 07:04:18;;;;;;;44.90;22.95;;;;;;;-0.05;86.69;99422.33;1817707;78;25667;-55
2021/01/21 07:07:07;;;;;;;45.58;23.47;;;;;;;0.02;86.72;99419.44;1817794;78;25655;-50
2021/01/21 07:09:36;;;;;;;48.50;22.62;;;;;;;0.06;86.70;99417.84;1817846;78;25528;-50
2021/01/21 07:12:05;;;;;;;47.67;23.67;;;;;;;0.12;86.63;99423.97;1818071;78;25519;-56
2021/01/21 07:14:36;;;;;;;44.95;22.60;;;;;;;0.16;86.57;99417.88;1817975;78;25782;-56
2021/01/21 07:17:05;;;;;;;43.25;22.60;;;;;;;0.22;86.65;99437.30;1817951;78;25563;-57
2021/01/21 07:19:36;;;;;;;48.83;24.95;;;;;;;0.25;86.42;99426.14;1817992;78;25600;-56
2021/01/21 07:22:21;;;;;;;44.33;22.62;;;;;;;0.29;86.37;99431.23;1817741;78;25613;-56
2021/01/21 07:25:01;;;;;;;45.48;23.42;;;;;;;0.33;86.43;99434.16;1818162;78;25610;-50
2021/01/21 07:27:31;;;;;;;48.98;23.77;;;;;;;0.36;86.38;99422.46;1818218;78;25886;-55
2021/01/21 07:30:23;;;;;;;48.33;23.30;;;;;;;0.41;86.39;99416.88;1817957;78;25328;-46
2021/01/21 07:33:20;;;;;;;42.55;22.67;;;;;;;0.46;86.34;99419.55;1818050;78;25368;-47
2021/01/21 07:35:48;;;;;;;45.05;22.85;;;;;;;0.48;86.27;99414.24;1817851;78;25350;-56
2021/01/21 07:38:50;;;;;;;44.20;24.32;;;;;;;0.52;86.10;99409.19;1817988;78;25591;-55
2021/01/21 07:41:45;;;;;;;52.03;25.70;;;;;;;0.57;86.07;99411.06;1817894;78;26281;-55
2021/01/21 07:44:12;;;;;;;45.80;23.05;;;;;;;0.62;86.24;99409.74;1818034;78;25624;-56
2021/01/21 07:46:39;;;;;;;50.67;23.80;;;;;;;0.68;86.20;99406.83;1817972;78;25623;-54
2021/01/21 07:49:27;;;;;;;47.08;24.75;;;;;;;0.72;85.84;99410.54;1817861;78;25608;-55
2021/01/21 07:52:07;;;;;;;47.88;25.20;;;;;;;0.76;85.88;99402.82;1818086;78;25661;-48
2021/01/21 07:54:52;;;;;;;44.73;24.23;;;;;;;0.85;86.04;99397.77;1818087;78;26159;-56
2021/01/21 07:57:24;;;;;;;45.88;23.80;;;;;;;0.91;86.05;99386.05;1817900;78;25610;-56
2021/01/21 08:00:11;;;;;;;50.25;27.37;;;;;;;0.96;85.72;99392.71;1817811;78;25319;-56
2021/01/21 08:02:52;;;;;;;49.03;24.37;;;;;;;1.01;85.65;99394.58;1817890;78;25501;-55
2021/01/21 08:05:23;;;;;;;51.53;26.27;;;;;;;1.05;85.78;99408.95;1817987;78;25535;-52
2021/01/21 08:08:00;;;;;;;49.55;25.25;;;;;;;1.06;85.32;99392.70;1818113;78;25775;-56
2021/01/21 08:10:30;;;;;;;45.83;24.25;;;;;;;1.12;85.41;99393.49;1817929;78;25693;-57
2021/01/21 08:13:03;;;;;;;49.48;24.23;;;;;;;1.23;85.64;99388.97;1817978;78;25489;-56
2021/01/21 08:15:31;;;;;;;54.08;26.45;;;;;;;1.31;85.45;99392.39;1817896;78;25338;-57
2021/01/21 08:18:00;;;;;;;50.75;24.92;;;;;;;1.37;85.27;99387.88;1817714;78;25728;-56
2021/01/21 08:20:30;;;;;;;47.75;25.68;;;;;;;1.45;85.08;99382.78;1817900;78;25745;-53
2021/01/21 08:23:05;;;;;;;47.23;24.18;;;;;;;1.54;84.78;99380.91;1817998;78;25392;-56
2021/01/21 08:25:43;;;;;;;48.40;25.52;;;;;;;1.63;84.97;99376.05;1817847;78;25547;-55
2021/01/21 08:28:17;;;;;;;48.48;25.50;;;;;;;1.75;84.75;99373.63;1818002;78;25547;-55
2021/01/21 08:30:45;;;;;;;49.30;25.27;;;;;;;1.85;85.21;99378.38;1818034;78;25566;-55
2021/01/21 08:33:22;;;;;;;45.35;24.90;;;;;;;1.94;84.36;99382.63;1818017;78;25791;-50
2021/01/21 08:35:54;;;;;;;47.88;26.40;;;;;;;2.02;84.62;99373.24;1817815;78;25571;-54
2021/01/21 08:38:26;;;;;;;44.33;24.77;;;;;;;2.12;84.31;99384.41;1816495;78;25336;-48
2021/01/21 08:40:55;;;;;;;46.15;25.37;;;;;;;2.21;84.42;99380.08;1817881;78;25496;-54
2021/01/21 08:43:24;;;;;;;52.98;27.30;;;;;;;2.32;84.23;99376.83;1817914;78;25590;-53
2021/01/21 08:45:52;;;;;;;48.47;25.20;;;;;;;2.40;83.66;99373.03;1818009;78;26817;-50
2021/01/21 08:48:30;;;;;;;47.15;23.57;;;;;;;2.54;83.96;99377.21;1817849;78;25539;-50
2021/01/21 08:50:57;;;;;;;47.90;23.60;;;;;;;2.65;84.00;99377.14;1817846;78;25732;-46
2021/01/21 08:53:28;;;;;;;45.28;24.47;;;;;;;2.79;83.64;99372.74;1817874;78;25581;-53
2021/01/21 08:55:56;;;;;;;;;;;;;;;2.90;83.50;99369.47;1820595;78;25599;-51
2021/01/21 08:58:32;;;;;;;41.63;23.38;;;;;;;2.99;83.03;99374.45;1817775;78;25693;-52
2021/01/21 09:03:51;;;;;;;43.93;28.60;;;;;;;3.70;83.51;99367.58;1832902;76;27853;-53
2021/01/21 09:06:22;;;;;;;43.02;23.95;;;;;;;4.15;83.82;99369.17;1818725;78;25644;-45
2021/01/21 09:08:57;;;;;;;39.35;22.20;;;;;;;4.83;84.90;99375.92;1818740;78;25720;-52
2021/01/21 09:11:38;;;;;;;39.10;23.77;;;;;;;5.33;82.04;99374.00;1818529;78;25547;-54
2021/01/21 09:14:15;;;;;;;41.80;22.55;;;;;;;5.69;82.18;99368.77;1818652;78;25352;-53
2021/01/21 09:16:48;;;;;;;38.65;22.52;;;;;;;6.14;80.73;99364.90;1818576;78;25573;-54
2021/01/21 09:19:25;;;;;;;37.10;21.90;;;;;;;6.40;79.18;99368.36;1818211;78;25527;-52
2021/01/21 09:22:10;;;;;;;36.28;21.65;;;;;;;6.72;79.76;99361.19;1818405;78;25678;-52
2021/01/21 09:25:03;;;;;;;38.95;22.48;;;;;;;7.21;79.13;99362.67;1818369;78;25685;-53
2021/01/21 09:27:34;;;;;;;37.83;22.17;;;;;;;7.37;76.99;99360.36;1818282;78;25612;-54
2021/01/21 09:30:12;;;;;;;37.03;21.48;;;;;;;7.61;77.62;99357.29;1818061;78;25574;-55
2021/01/21 09:32:42;;;;;;;34.48;20.82;;;;;;;7.89;76.40;99361.89;1818627;78;25575;-53
2021/01/21 09:35:16;;;;;;;37.35;20.75;;;;;;;8.14;76.28;99356.31;1818412;78;25686;-45
2021/01/21 09:37:54;;;;;;;32.05;19.32;;;;;;;8.41;76.86;99356.58;1818572;78;25574;-52
2021/01/21 09:40:24;;;;;;;31.50;20.08;;;;;;;8.81;75.10;99354.83;1817966;78;25631;-45
2021/01/21 09:42:54;;;;;;;31.93;19.52;;;;;;;8.92;72.39;99352.83;1818697;78;25511;-53
2021/01/21 09:45:22;;;;;;;31.68;19.77;;;;;;;8.94;72.11;99351.95;1818644;78;25378;-52
2021/01/21 09:50:27;;;;;;;34.58;19.65;;;;;;;9.16;71.27;99361.73;1888182;75;34634;-42
2021/01/21 09:52:53;;;;;;;32.15;20.20;;;;;;;9.27;72.08;99352.72;1821340;78;25602;-55
2021/01/21 09:55:20;;;;;;;32.65;18.48;;;;;;;9.75;71.72;99348.63;1821251;78;26421;-55
2021/01/21 09:57:48;;;;;;;30.92;18.52;;;;;;;9.86;68.99;99351.20;1787105;80;25393;-53
2021/01/21 10:00:16;;;;;;;33.20;19.62;;;;;;;10.01;68.62;99357.38;1820751;78;25583;-56
2021/01/21 10:02:43;;;;;;;30.43;18.62;;;;;;;10.08;64.53;99353.59;1786965;80;25607;-46
2021/01/21 10:05:13;;;;;;;29.25;18.85;;;;;;;10.08;67.88;99348.19;1821084;78;25636;-55
2021/01/21 10:07:39;;;;;;;32.73;20.17;;;;;;;10.59;66.43;99352.75;1786985;80;26882;-44
2021/01/21 10:10:07;;;;;;;28.98;19.23;;;;;;;10.77;64.42;99342.00;1821277;78;25325;-55
2021/01/21 10:12:34;;;;;;;30.85;20.35;;;;;;;10.83;63.51;99348.02;1787174;80;25570;-43
2021/01/21 10:15:02;;;;;;;30.23;20.40;;;;;;;11.05;65.82;99341.42;1821198;78;25417;-53
2021/01/21 10:17:29;;;;;;;29.67;19.37;;;;;;;11.15;63.66;99344.24;1787290;80;25568;-48
2021/01/21 10:19:55;;;;;;;25.60;17.80;;;;;;;11.23;63.97;99345.28;1820947;78;25954;-53
2021/01/21 10:22:23;;;;;;;29.07;18.70;;;;;;;11.52;64.05;99336.16;1787278;80;25389;-55
2021/01/21 10:24:49;;;;;;;26.50;18.12;;;;;;;11.88;64.23;99325.86;1821208;78;25562;-50
2021/01/21 10:27:16;;;;;;;26.93;18.32;;;;;;;12.12;60.47;99331.86;1787040;80;25661;-44
2021/01/21 10:29:43;;;;;;;28.32;18.48;;;;;;;12.20;61.85;99348.33;1821281;78;25393;-45
2021/01/21 10:32:10;;;;;;;26.05;18.25;;;;;;;12.24;59.49;99326.97;1787345;80;26222;-53
2021/01/21 10:34:37;;;;;;;28.10;18.67;;;;;;;12.15;59.31;99324.38;1821031;78;25333;-55
2021/01/21 10:37:04;;;;;;;28.40;18.55;;;;;;;12.23;60.30;99320.53;1787223;80;25563;-51
2021/01/21 10:39:32;;;;;;;27.73;18.98;;;;;;;12.43;60.13;99318.75;1821285;78;25333;-54
2021/01/21 10:41:59;;;;;;;29.00;18.20;;;;;;;12.44;59.14;99323.05;1786897;80;25649;-50
2021/01/21 10:44:26;;;;;;;29.57;18.42;;;;;;;12.42;57.32;99338.88;1821244;78;26824;-48
2021/01/21 10:46:53;;;;;;;25.88;18.77;;;;;;;12.25;56.98;99323.11;1787186;80;25703;-51
2021/01/21 10:49:20;;;;;;;27.80;19.40;;;;;;;12.22;58.82;99325.14;1822449;78;25804;-45
2021/01/21 10:51:47;;;;;;;29.02;18.92;;;;;;;12.33;58.28;99320.83;1824488;78;25352;-57
2021/01/21 10:54:14;;;;;;;30.60;19.02;;;;;;;12.33;56.47;99312.70;1824408;78;25389;-55
2021/01/21 10:56:41;;;;;;;26.97;18.62;;;;;;;12.09;57.13;99316.27;1824461;78;25680;-56
2021/01/21 10:59:09;;;;;;;27.00;18.52;;;;;;;12.27;58.75;99315.41;1824305;78;25582;-45
2021/01/21 11:01:35;;;;;;;26.57;18.35;;;;;;;12.51;58.02;99309.13;1823834;78;25693;-56
2021/01/21 11:04:04;;;;;;;30.12;20.35;;;;;;;12.50;57.31;99304.05;1823717;78;25576;-57
2021/01/21 11:06:30;;;;;;;28.87;19.30;;;;;;;12.59;55.60;99303.90;1823620;78;25546;-55
2021/01/21 11:08:57;;;;;;;25.72;17.37;;;;;;;12.61;57.42;99307.83;1823806;78;25884;-44
2021/01/21 11:11:24;;;;;;;27.70;18.57;;;;;;;12.80;57.47;99299.59;1823797;78;25405;-43
2021/01/21 11:13:53;;;;;;;28.05;19.05;;;;;;;12.73;56.88;99296.12;1823722;78;25820;-52
2021/01/21 11:16:21;;;;;;;28.57;19.07;;;;;;;12.81;56.05;99293.05;1823912;78;31651;-54
2021/01/21 11:18:48;;;;;;;29.07;18.42;;;;;;;12.52;52.76;99297.13;1823934;78;25579;-53
2021/01/21 11:21:15;;;;;;;26.50;18.25;;;;;;;12.28;54.48;99293.96;1823802;78;25678;-52
2021/01/21 11:23:42;;;;;;;27.60;18.75;;;;;;;12.25;56.79;99291.93;1823818;78;25325;-54
2021/01/21 11:26:09;;;;;;;29.07;19.30;;;;;;;12.48;57.61;99288.12;1823781;78;25333;-42
2021/01/21 11:28:37;;;;;;;30.45;19.82;;;;;;;12.50;56.35;99285.84;1823714;78;25543;-53
2021/01/21 11:31:04;;;;;;;31.27;20.90;;;;;;;12.48;56.36;99277.27;1823800;78;25771;-44
2021/01/21 11:33:31;;;;;;;30.82;20.35;;;;;;;12.23;53.83;99279.86;1823629;78;25677;-49
2021/01/21 11:35:58;;;;;;;32.55;20.55;;;;;;;12.04;53.13;99282.63;1823728;78;25579;-52
2021/01/21 11:38:26;;;;;;;30.48;20.23;;;;;;;12.07;56.95;99268.95;1823895;78;25408;-45
2021/01/21 11:40:53;;;;;;;28.70;20.27;;;;;;;12.18;56.02;99270.05;1823714;78;25540;-48